sensor_id;sensor_type;location;lat;lon;timestamp;temperature;humidity
4054;DHT22;2042;47.956;9.222;2024-02-16T00:00:17;2.60;46.80
4054;DHT22;2042;47.956;9.222;2024-02-16T00:02:43;2.60;47.10
4054;DHT22;2042;47.956;9.222;2024-02-16T00:05:10;2.60;47.20
4054;DHT22;2042;47.956;9.222;2024-02-16T00:07:39;2.70;47.90
4054;DHT22;2042;47.956;9.222;2024-02-16T00:10:06;2.80;48.20
4054;DHT22;2042;47.956;9.222;2024-02-16T00:12:32;2.80;48.30
4054;DHT22;2042;47.956;9.222;2024-02-16T00:14:59;2.80;48.40
4054;DHT22;2042;47.956;9.222;2024-02-16T00:17:25;2.90;48.60
4054;DHT22;2042;47.956;9.222;2024-02-16T00:19:57;2.90;48.80
4054;DHT22;2042;47.956;9.222;2024-02-16T00:22:23;2.90;49.10
4054;DHT22;2042;47.956;9.222;2024-02-16T00:24:51;3.00;49.40
4054;DHT22;2042;47.956;9.222;2024-02-16T00:27:17;3.00;49.60
4054;DHT22;2042;47.956;9.222;2024-02-16T00:29:43;3.00;49.80
4054;DHT22;2042;47.956;9.222;2024-02-16T00:32:09;3.10;50.20
4054;DHT22;2042;47.956;9.222;2024-02-16T00:34:37;3.10;50.50
4054;DHT22;2042;47.956;9.222;2024-02-16T00:37:03;3.20;50.80
4054;DHT22;2042;47.956;9.222;2024-02-16T00:39:33;3.20;51.10
4054;DHT22;2042;47.956;9.222;2024-02-16T00:41:59;3.30;51.40
4054;DHT22;2042;47.956;9.222;2024-02-16T00:44:24;3.40;51.70
4054;DHT22;2042;47.956;9.222;2024-02-16T00:46:50;3.40;51.90
4054;DHT22;2042;47.956;9.222;2024-02-16T00:49:15;3.40;52.00
4054;DHT22;2042;47.956;9.222;2024-02-16T00:51:41;3.40;52.20
4054;DHT22;2042;47.956;9.222;2024-02-16T00:54:07;3.50;52.50
4054;DHT22;2042;47.956;9.222;2024-02-16T00:56:32;3.50;52.50
4054;DHT22;2042;47.956;9.222;2024-02-16T00:58:58;3.50;52.60
4054;DHT22;2042;47.956;9.222;2024-02-16T01:01:24;3.60;52.70
4054;DHT22;2042;47.956;9.222;2024-02-16T01:03:51;3.60;52.70
4054;DHT22;2042;47.956;9.222;2024-02-16T01:06:17;3.60;52.80
4054;DHT22;2042;47.956;9.222;2024-02-16T01:08:43;3.60;52.80
4054;DHT22;2042;47.956;9.222;2024-02-16T01:11:09;3.60;52.80
4054;DHT22;2042;47.956;9.222;2024-02-16T01:13:35;3.50;53.30
4054;DHT22;2042;47.956;9.222;2024-02-16T01:16:00;3.50;52.70
4054;DHT22;2042;47.956;9.222;2024-02-16T01:18:28;3.50;52.70
4054;DHT22;2042;47.956;9.222;2024-02-16T01:20:53;3.50;52.60
4054;DHT22;2042;47.956;9.222;2024-02-16T01:23:20;3.50;52.70
4054;DHT22;2042;47.956;9.222;2024-02-16T01:25:46;3.40;52.60
4054;DHT22;2042;47.956;9.222;2024-02-16T01:28:12;3.40;52.60
4054;DHT22;2042;47.956;9.222;2024-02-16T01:30:38;3.40;52.60
4054;DHT22;2042;47.956;9.222;2024-02-16T01:33:04;3.50;52.90
4054;DHT22;2042;47.956;9.222;2024-02-16T01:35:31;3.50;52.90
4054;DHT22;2042;47.956;9.222;2024-02-16T01:37:57;3.50;52.90
4054;DHT22;2042;47.956;9.222;2024-02-16T01:40:23;3.50;52.90
4054;DHT22;2042;47.956;9.222;2024-02-16T01:42:51;3.40;52.70
4054;DHT22;2042;47.956;9.222;2024-02-16T01:45:18;3.40;52.60
4054;DHT22;2042;47.956;9.222;2024-02-16T01:47:46;3.30;52.60
4054;DHT22;2042;47.956;9.222;2024-02-16T01:50:18;3.30;52.60
4054;DHT22;2042;47.956;9.222;2024-02-16T01:52:44;3.30;52.60
4054;DHT22;2042;47.956;9.222;2024-02-16T01:55:11;3.30;52.60
4054;DHT22;2042;47.956;9.222;2024-02-16T01:57:40;3.30;52.70
4054;DHT22;2042;47.956;9.222;2024-02-16T02:00:06;3.30;52.60
4054;DHT22;2042;47.956;9.222;2024-02-16T02:02:35;3.30;52.60
4054;DHT22;2042;47.956;9.222;2024-02-16T02:05:01;3.20;52.60
4054;DHT22;2042;47.956;9.222;2024-02-16T02:07:27;3.20;52.60
4054;DHT22;2042;47.956;9.222;2024-02-16T02:09:53;3.20;52.70
4054;DHT22;2042;47.956;9.222;2024-02-16T02:12:19;3.20;52.70
4054;DHT22;2042;47.956;9.222;2024-02-16T02:14:45;3.30;52.80
4054;DHT22;2042;47.956;9.222;2024-02-16T02:17:12;3.30;52.90
4054;DHT22;2042;47.956;9.222;2024-02-16T02:19:38;3.30;52.90
4054;DHT22;2042;47.956;9.222;2024-02-16T02:22:08;3.30;53.10
4054;DHT22;2042;47.956;9.222;2024-02-16T02:24:33;3.30;53.20
4054;DHT22;2042;47.956;9.222;2024-02-16T02:26:59;3.40;53.40
4054;DHT22;2042;47.956;9.222;2024-02-16T02:29:25;3.40;53.50
4054;DHT22;2042;47.956;9.222;2024-02-16T02:31:50;3.40;53.50
4054;DHT22;2042;47.956;9.222;2024-02-16T02:34:16;3.40;53.50
4054;DHT22;2042;47.956;9.222;2024-02-16T02:36:41;3.40;53.70
4054;DHT22;2042;47.956;9.222;2024-02-16T02:39:07;3.40;53.70
4054;DHT22;2042;47.956;9.222;2024-02-16T02:41:33;3.40;53.80
4054;DHT22;2042;47.956;9.222;2024-02-16T02:43:59;3.40;53.80
4054;DHT22;2042;47.956;9.222;2024-02-16T02:46:25;3.40;53.80
4054;DHT22;2042;47.956;9.222;2024-02-16T02:48:53;3.30;53.60
4054;DHT22;2042;47.956;9.222;2024-02-16T02:51:18;3.40;53.70
4054;DHT22;2042;47.956;9.222;2024-02-16T02:53:44;3.30;53.50
4054;DHT22;2042;47.956;9.222;2024-02-16T02:56:10;3.30;53.50
4054;DHT22;2042;47.956;9.222;2024-02-16T02:58:35;3.20;53.40
4054;DHT22;2042;47.956;9.222;2024-02-16T03:01:01;3.20;53.50
4054;DHT22;2042;47.956;9.222;2024-02-16T03:03:27;3.20;53.30
4054;DHT22;2042;47.956;9.222;2024-02-16T03:05:52;3.10;53.10
4054;DHT22;2042;47.956;9.222;2024-02-16T03:08:18;3.00;52.80
4054;DHT22;2042;47.956;9.222;2024-02-16T03:10:43;2.90;52.60
4054;DHT22;2042;47.956;9.222;2024-02-16T03:13:10;2.90;52.60
4054;DHT22;2042;47.956;9.222;2024-02-16T03:15:38;2.80;52.50
4054;DHT22;2042;47.956;9.222;2024-02-16T03:18:05;2.80;52.40
4054;DHT22;2042;47.956;9.222;2024-02-16T03:20:36;2.70;52.30
4054;DHT22;2042;47.956;9.222;2024-02-16T03:23:02;2.70;52.30
4054;DHT22;2042;47.956;9.222;2024-02-16T03:25:28;2.70;52.30
4054;DHT22;2042;47.956;9.222;2024-02-16T03:27:54;2.60;52.10
4054;DHT22;2042;47.956;9.222;2024-02-16T03:30:20;2.50;52.00
4054;DHT22;2042;47.956;9.222;2024-02-16T03:32:49;2.50;52.00
4054;DHT22;2042;47.956;9.222;2024-02-16T03:35:16;2.50;52.20
4054;DHT22;2042;47.956;9.222;2024-02-16T03:37:41;2.50;52.10
4054;DHT22;2042;47.956;9.222;2024-02-16T03:40:08;2.50;52.20
4054;DHT22;2042;47.956;9.222;2024-02-16T03:42:36;2.50;52.20
4054;DHT22;2042;47.956;9.222;2024-02-16T03:45:02;2.60;52.30
4054;DHT22;2042;47.956;9.222;2024-02-16T03:47:28;2.50;52.20
4054;DHT22;2042;47.956;9.222;2024-02-16T03:49:54;2.50;52.20
4054;DHT22;2042;47.956;9.222;2024-02-16T03:52:19;2.50;52.20
4054;DHT22;2042;47.956;9.222;2024-02-16T03:54:45;2.50;52.30
4054;DHT22;2042;47.956;9.222;2024-02-16T03:57:14;2.50;52.30
4054;DHT22;2042;47.956;9.222;2024-02-16T03:59:42;2.40;52.20
4054;DHT22;2042;47.956;9.222;2024-02-16T04:02:09;2.40;52.20
4054;DHT22;2042;47.956;9.222;2024-02-16T04:04:35;2.40;52.30
4054;DHT22;2042;47.956;9.222;2024-02-16T04:07:02;2.50;52.70
4054;DHT22;2042;47.956;9.222;2024-02-16T04:09:28;2.60;53.10
4054;DHT22;2042;47.956;9.222;2024-02-16T04:11:53;2.80;53.60
4054;DHT22;2042;47.956;9.222;2024-02-16T04:14:19;2.80;53.90
4054;DHT22;2042;47.956;9.222;2024-02-16T04:16:44;3.00;54.40
4054;DHT22;2042;47.956;9.222;2024-02-16T04:19:10;3.20;54.90
4054;DHT22;2042;47.956;9.222;2024-02-16T04:21:37;3.30;55.10
4054;DHT22;2042;47.956;9.222;2024-02-16T04:24:02;3.30;55.10
4054;DHT22;2042;47.956;9.222;2024-02-16T04:26:28;3.30;55.20
4054;DHT22;2042;47.956;9.222;2024-02-16T04:28:54;3.40;55.50
4054;DHT22;2042;47.956;9.222;2024-02-16T04:31:20;3.50;55.70
4054;DHT22;2042;47.956;9.222;2024-02-16T04:33:46;3.70;56.20
4054;DHT22;2042;47.956;9.222;2024-02-16T04:36:11;3.80;56.50
4054;DHT22;2042;47.956;9.222;2024-02-16T04:38:37;3.80;56.50
4054;DHT22;2042;47.956;9.222;2024-02-16T04:41:05;3.70;56.30
4054;DHT22;2042;47.956;9.222;2024-02-16T04:43:30;3.60;56.00
4054;DHT22;2042;47.956;9.222;2024-02-16T04:45:56;3.60;56.00
4054;DHT22;2042;47.956;9.222;2024-02-16T04:48:21;3.60;56.10
4054;DHT22;2042;47.956;9.222;2024-02-16T04:50:47;3.60;56.20
4054;DHT22;2042;47.956;9.222;2024-02-16T04:53:13;3.70;56.40
4054;DHT22;2042;47.956;9.222;2024-02-16T04:55:38;3.80;56.60
4054;DHT22;2042;47.956;9.222;2024-02-16T04:58:04;3.90;56.90
4054;DHT22;2042;47.956;9.222;2024-02-16T05:00:36;3.90;56.90
4054;DHT22;2042;47.956;9.222;2024-02-16T05:03:02;3.90;56.90
4054;DHT22;2042;47.956;9.222;2024-02-16T05:05:28;3.80;56.70
4054;DHT22;2042;47.956;9.222;2024-02-16T05:07:54;3.80;56.40
4054;DHT22;2042;47.956;9.222;2024-02-16T05:10:19;3.60;55.80
4054;DHT22;2042;47.956;9.222;2024-02-16T05:12:45;3.50;55.60
4054;DHT22;2042;47.956;9.222;2024-02-16T05:15:11;3.40;55.30
4054;DHT22;2042;47.956;9.222;2024-02-16T05:17:40;3.30;55.10
4054;DHT22;2042;47.956;9.222;2024-02-16T05:20:12;3.30;55.00
4054;DHT22;2042;47.956;9.222;2024-02-16T05:22:43;3.10;54.50
4054;DHT22;2042;47.956;9.222;2024-02-16T05:25:09;3.00;54.10
4054;DHT22;2042;47.956;9.222;2024-02-16T05:27:38;2.90;53.60
4054;DHT22;2042;47.956;9.222;2024-02-16T05:30:04;2.80;53.20
4054;DHT22;2042;47.956;9.222;2024-02-16T05:32:36;2.60;52.50
4054;DHT22;2042;47.956;9.222;2024-02-16T05:35:03;2.50;52.50
4054;DHT22;2042;47.956;9.222;2024-02-16T05:37:47;2.50;53.00
4054;DHT22;2042;47.956;9.222;2024-02-16T05:40:22;2.70;53.60
4054;DHT22;2042;47.956;9.222;2024-02-16T05:42:51;2.70;53.50
4054;DHT22;2042;47.956;9.222;2024-02-16T05:45:16;2.60;53.10
4054;DHT22;2042;47.956;9.222;2024-02-16T05:47:43;2.50;52.80
4054;DHT22;2042;47.956;9.222;2024-02-16T05:50:11;2.40;52.60
4054;DHT22;2042;47.956;9.222;2024-02-16T05:52:38;2.40;52.60
4054;DHT22;2042;47.956;9.222;2024-02-16T05:55:07;2.40;52.90
4054;DHT22;2042;47.956;9.222;2024-02-16T05:57:34;2.50;53.30
4054;DHT22;2042;47.956;9.222;2024-02-16T06:00:00;2.60;53.60
4054;DHT22;2042;47.956;9.222;2024-02-16T06:02:26;2.60;53.50
4054;DHT22;2042;47.956;9.222;2024-02-16T06:04:53;2.50;53.00
4054;DHT22;2042;47.956;9.222;2024-02-16T06:07:19;2.40;52.80
4054;DHT22;2042;47.956;9.222;2024-02-16T06:09:44;2.40;53.20
4054;DHT22;2042;47.956;9.222;2024-02-16T06:12:10;2.60;53.60
4054;DHT22;2042;47.956;9.222;2024-02-16T06:14:38;2.70;53.90
4054;DHT22;2042;47.956;9.222;2024-02-16T06:17:04;2.70;54.10
4054;DHT22;2042;47.956;9.222;2024-02-16T06:19:29;2.70;53.90
4054;DHT22;2042;47.956;9.222;2024-02-16T06:21:56;2.60;53.60
4054;DHT22;2042;47.956;9.222;2024-02-16T06:24:23;2.60;53.50
4054;DHT22;2042;47.956;9.222;2024-02-16T06:26:49;2.50;53.50
4054;DHT22;2042;47.956;9.222;2024-02-16T06:29:16;2.70;54.00
4054;DHT22;2042;47.956;9.222;2024-02-16T06:31:42;2.80;54.40
4054;DHT22;2042;47.956;9.222;2024-02-16T06:34:07;2.90;54.50
4054;DHT22;2042;47.956;9.222;2024-02-16T06:36:34;2.90;54.60
4054;DHT22;2042;47.956;9.222;2024-02-16T06:38:59;3.00;54.70
4054;DHT22;2042;47.956;9.222;2024-02-16T06:41:25;2.90;54.60
4054;DHT22;2042;47.956;9.222;2024-02-16T06:43:51;3.00;54.70
4054;DHT22;2042;47.956;9.222;2024-02-16T06:46:17;3.10;54.90
4054;DHT22;2042;47.956;9.222;2024-02-16T06:48:42;3.20;55.10
4054;DHT22;2042;47.956;9.222;2024-02-16T06:51:08;3.30;55.30
4054;DHT22;2042;47.956;9.222;2024-02-16T06:53:34;3.40;55.50
4054;DHT22;2042;47.956;9.222;2024-02-16T06:55:59;3.60;55.60
4054;DHT22;2042;47.956;9.222;2024-02-16T06:58:25;3.90;55.80
4054;DHT22;2042;47.956;9.222;2024-02-16T07:00:50;4.20;55.90
4054;DHT22;2042;47.956;9.222;2024-02-16T07:03:17;4.50;56.40
4054;DHT22;2042;47.956;9.222;2024-02-16T07:05:43;4.60;57.10
4054;DHT22;2042;47.956;9.222;2024-02-16T07:08:09;4.70;57.70
4054;DHT22;2042;47.956;9.222;2024-02-16T07:10:35;4.80;57.80
4054;DHT22;2042;47.956;9.222;2024-02-16T07:13:01;5.10;57.90
4054;DHT22;2042;47.956;9.222;2024-02-16T07:15:26;5.30;58.30
4054;DHT22;2042;47.956;9.222;2024-02-16T07:17:53;5.50;59.20
4054;DHT22;2042;47.956;9.222;2024-02-16T07:20:18;5.50;59.90
4054;DHT22;2042;47.956;9.222;2024-02-16T07:22:44;5.50;60.10
4054;DHT22;2042;47.956;9.222;2024-02-16T07:25:13;5.50;60.20
4054;DHT22;2042;47.956;9.222;2024-02-16T07:27:39;5.60;60.40
4054;DHT22;2042;47.956;9.222;2024-02-16T07:30:05;5.70;60.70
4054;DHT22;2042;47.956;9.222;2024-02-16T07:32:31;5.90;61.80
4054;DHT22;2042;47.956;9.222;2024-02-16T07:34:57;6.00;61.10
4054;DHT22;2042;47.956;9.222;2024-02-16T07:37:22;6.00;60.50
4054;DHT22;2042;47.956;9.222;2024-02-16T07:39:48;6.00;60.00
4054;DHT22;2042;47.956;9.222;2024-02-16T07:42:14;6.10;59.90
4054;DHT22;2042;47.956;9.222;2024-02-16T07:44:40;6.20;59.80
4054;DHT22;2042;47.956;9.222;2024-02-16T07:47:05;6.30;60.20
4054;DHT22;2042;47.956;9.222;2024-02-16T07:49:31;6.50;60.70
4054;DHT22;2042;47.956;9.222;2024-02-16T07:51:57;6.80;62.10
4054;DHT22;2042;47.956;9.222;2024-02-16T07:54:25;7.30;64.00
4054;DHT22;2042;47.956;9.222;2024-02-16T07:56:51;8.00;65.40
4054;DHT22;2042;47.956;9.222;2024-02-16T07:59:16;8.80;66.70
4054;DHT22;2042;47.956;9.222;2024-02-16T08:01:44;9.70;68.10
4054;DHT22;2042;47.956;9.222;2024-02-16T08:04:10;10.40;65.40
4054;DHT22;2042;47.956;9.222;2024-02-16T08:06:36;10.80;55.10
4054;DHT22;2042;47.956;9.222;2024-02-16T08:09:02;10.90;43.20
4054;DHT22;2042;47.956;9.222;2024-02-16T08:11:27;10.90;33.10
4054;DHT22;2042;47.956;9.222;2024-02-16T08:13:53;10.80;26.00
4054;DHT22;2042;47.956;9.222;2024-02-16T08:16:21;10.90;23.30
4054;DHT22;2042;47.956;9.222;2024-02-16T08:18:46;11.10;20.70
4054;DHT22;2042;47.956;9.222;2024-02-16T08:21:12;11.30;17.20
4054;DHT22;2042;47.956;9.222;2024-02-16T08:23:38;11.70;16.50
4054;DHT22;2042;47.956;9.222;2024-02-16T08:26:04;12.40;18.80
4054;DHT22;2042;47.956;9.222;2024-02-16T08:28:29;12.90;12.50
4054;DHT22;2042;47.956;9.222;2024-02-16T08:30:55;13.80;13.10
4054;DHT22;2042;47.956;9.222;2024-02-16T08:33:21;15.00;4.70
4054;DHT22;2042;47.956;9.222;2024-02-16T08:35:47;15.60;1.00
4054;DHT22;2042;47.956;9.222;2024-02-16T08:38:12;15.60;1.00
4054;DHT22;2042;47.956;9.222;2024-02-16T08:40:39;15.30;1.00
4054;DHT22;2042;47.956;9.222;2024-02-16T08:43:05;15.80;1.00
4054;DHT22;2042;47.956;9.222;2024-02-16T08:45:32;16.40;1.00
4054;DHT22;2042;47.956;9.222;2024-02-16T08:47:58;16.70;1.00
4054;DHT22;2042;47.956;9.222;2024-02-16T08:50:25;16.70;1.00
4054;DHT22;2042;47.956;9.222;2024-02-16T08:52:51;16.30;1.00
4054;DHT22;2042;47.956;9.222;2024-02-16T08:55:17;17.00;1.00
4054;DHT22;2042;47.956;9.222;2024-02-16T08:57:42;18.70;1.00
4054;DHT22;2042;47.956;9.222;2024-02-16T09:00:09;20.30;1.00
4054;DHT22;2042;47.956;9.222;2024-02-16T09:02:35;21.60;1.00
4054;DHT22;2042;47.956;9.222;2024-02-16T09:05:01;22.80;1.00
4054;DHT22;2042;47.956;9.222;2024-02-16T09:07:26;23.50;1.00
4054;DHT22;2042;47.956;9.222;2024-02-16T09:12:19;23.80;1.00
4054;DHT22;2042;47.956;9.222;2024-02-16T09:14:44;24.20;1.00
4054;DHT22;2042;47.956;9.222;2024-02-16T09:17:10;24.00;1.00
4054;DHT22;2042;47.956;9.222;2024-02-16T09:19:36;23.80;1.00
4054;DHT22;2042;47.956;9.222;2024-02-16T09:22:01;23.50;1.00
4054;DHT22;2042;47.956;9.222;2024-02-16T09:24:32;23.40;1.00
4054;DHT22;2042;47.956;9.222;2024-02-16T09:26:58;23.50;1.00
4054;DHT22;2042;47.956;9.222;2024-02-16T09:29:30;23.10;1.00
4054;DHT22;2042;47.956;9.222;2024-02-16T09:31:56;23.00;1.00
4054;DHT22;2042;47.956;9.222;2024-02-16T09:34:22;22.90;1.00
4054;DHT22;2042;47.956;9.222;2024-02-16T09:36:47;22.60;1.00
4054;DHT22;2042;47.956;9.222;2024-02-16T09:39:13;22.60;1.00
4054;DHT22;2042;47.956;9.222;2024-02-16T09:41:42;22.50;1.00
4054;DHT22;2042;47.956;9.222;2024-02-16T09:44:11;23.20;1.00
4054;DHT22;2042;47.956;9.222;2024-02-16T09:46:36;23.90;1.00
4054;DHT22;2042;47.956;9.222;2024-02-16T09:49:03;24.80;1.00
4054;DHT22;2042;47.956;9.222;2024-02-16T09:51:30;24.90;1.00
4054;DHT22;2042;47.956;9.222;2024-02-16T09:53:56;25.00;1.00
4054;DHT22;2042;47.956;9.222;2024-02-16T09:56:22;24.20;1.00
4054;DHT22;2042;47.956;9.222;2024-02-16T09:58:53;22.90;1.00
4054;DHT22;2042;47.956;9.222;2024-02-16T10:01:21;22.00;1.00
4054;DHT22;2042;47.956;9.222;2024-02-16T10:03:47;22.10;1.00
4054;DHT22;2042;47.956;9.222;2024-02-16T10:06:13;23.30;1.00
4054;DHT22;2042;47.956;9.222;2024-02-16T10:08:54;24.60;1.00
4054;DHT22;2042;47.956;9.222;2024-02-16T10:11:22;24.50;1.00
4054;DHT22;2042;47.956;9.222;2024-02-16T10:13:59;24.00;1.00
4054;DHT22;2042;47.956;9.222;2024-02-16T10:16:27;24.40;1.00
4054;DHT22;2042;47.956;9.222;2024-02-16T10:18:56;24.50;1.00
4054;DHT22;2042;47.956;9.222;2024-02-16T10:21:27;23.90;1.00
4054;DHT22;2042;47.956;9.222;2024-02-16T10:24:06;22.60;1.00
4054;DHT22;2042;47.956;9.222;2024-02-16T10:26:34;21.20;1.00
4054;DHT22;2042;47.956;9.222;2024-02-16T10:29:10;20.90;1.00
4054;DHT22;2042;47.956;9.222;2024-02-16T10:31:36;21.20;1.00
4054;DHT22;2042;47.956;9.222;2024-02-16T10:34:04;20.60;1.00
4054;DHT22;2042;47.956;9.222;2024-02-16T10:36:35;19.70;1.00
4054;DHT22;2042;47.956;9.222;2024-02-16T10:39:02;19.00;1.00
4054;DHT22;2042;47.956;9.222;2024-02-16T10:41:41;18.40;1.00
4054;DHT22;2042;47.956;9.222;2024-02-16T10:44:07;17.70;1.00
4054;DHT22;2042;47.956;9.222;2024-02-16T10:46:33;17.10;1.00
4054;DHT22;2042;47.956;9.222;2024-02-16T10:48:59;16.70;1.00
4054;DHT22;2042;47.956;9.222;2024-02-16T10:51:33;16.60;1.00
4054;DHT22;2042;47.956;9.222;2024-02-16T10:54:01;16.50;1.00
4054;DHT22;2042;47.956;9.222;2024-02-16T10:56:34;16.80;1.00
4054;DHT22;2042;47.956;9.222;2024-02-16T10:59:04;17.90;1.00
4054;DHT22;2042;47.956;9.222;2024-02-16T11:01:40;18.80;1.00
4054;DHT22;2042;47.956;9.222;2024-02-16T11:04:35;18.70;1.00
4054;DHT22;2042;47.956;9.222;2024-02-16T11:07:01;18.20;1.00
4054;DHT22;2042;47.956;9.222;2024-02-16T11:09:38;17.90;1.00
4054;DHT22;2042;47.956;9.222;2024-02-16T11:12:05;18.10;1.00
4054;DHT22;2042;47.956;9.222;2024-02-16T11:14:37;18.90;1.00
4054;DHT22;2042;47.956;9.222;2024-02-16T11:17:19;20.20;1.00
4054;DHT22;2042;47.956;9.222;2024-02-16T11:19:47;21.70;1.00
4054;DHT22;2042;47.956;9.222;2024-02-16T11:22:17;23.20;1.00
4054;DHT22;2042;47.956;9.222;2024-02-16T11:24:47;23.20;1.00
4054;DHT22;2042;47.956;9.222;2024-02-16T11:27:14;22.60;1.00
4054;DHT22;2042;47.956;9.222;2024-02-16T11:29:45;21.70;1.00
4054;DHT22;2042;47.956;9.222;2024-02-16T11:32:11;21.00;1.00
4054;DHT22;2042;47.956;9.222;2024-02-16T11:34:39;20.70;1.00
4054;DHT22;2042;47.956;9.222;2024-02-16T11:37:05;20.40;1.00
4054;DHT22;2042;47.956;9.222;2024-02-16T11:39:31;21.20;1.00
4054;DHT22;2042;47.956;9.222;2024-02-16T11:42:09;22.60;1.00
4054;DHT22;2042;47.956;9.222;2024-02-16T11:44:39;24.30;1.00
4054;DHT22;2042;47.956;9.222;2024-02-16T11:47:09;25.70;1.00
4054;DHT22;2042;47.956;9.222;2024-02-16T11:49:38;26.60;1.00
4054;DHT22;2042;47.956;9.222;2024-02-16T11:52:05;26.70;1.00
4054;DHT22;2042;47.956;9.222;2024-02-16T11:54:31;26.10;1.00
4054;DHT22;2042;47.956;9.222;2024-02-16T11:56:57;25.20;1.00
4054;DHT22;2042;47.956;9.222;2024-02-16T11:59:23;24.60;1.00
4054;DHT22;2042;47.956;9.222;2024-02-16T12:04:23;22.40;1.00
4054;DHT22;2042;47.956;9.222;2024-02-16T12:07:00;21.40;1.00
4054;DHT22;2042;47.956;9.222;2024-02-16T12:09:26;20.80;1.00
4054;DHT22;2042;47.956;9.222;2024-02-16T12:11:53;20.60;1.00
4054;DHT22;2042;47.956;9.222;2024-02-16T12:14:21;20.30;1.00
4054;DHT22;2042;47.956;9.222;2024-02-16T12:16:56;20.50;1.00
4054;DHT22;2042;47.956;9.222;2024-02-16T12:19:22;20.50;1.00
4054;DHT22;2042;47.956;9.222;2024-02-16T12:21:49;20.40;1.00
4054;DHT22;2042;47.956;9.222;2024-02-16T12:24:16;20.60;1.00
4054;DHT22;2042;47.956;9.222;2024-02-16T12:26:41;21.10;1.00
4054;DHT22;2042;47.956;9.222;2024-02-16T12:29:07;21.20;1.00
4054;DHT22;2042;47.956;9.222;2024-02-16T12:31:42;21.10;1.00
4054;DHT22;2042;47.956;9.222;2024-02-16T12:34:08;21.30;1.00
4054;DHT22;2042;47.956;9.222;2024-02-16T12:36:35;21.20;1.00
4054;DHT22;2042;47.956;9.222;2024-02-16T12:39:02;21.20;1.00
4054;DHT22;2042;47.956;9.222;2024-02-16T12:41:32;21.40;1.00
4054;DHT22;2042;47.956;9.222;2024-02-16T12:43:58;21.20;1.00
4054;DHT22;2042;47.956;9.222;2024-02-16T12:46:25;20.30;1.00
4054;DHT22;2042;47.956;9.222;2024-02-16T12:48:51;19.60;1.00
4054;DHT22;2042;47.956;9.222;2024-02-16T12:51:18;19.10;1.00
4054;DHT22;2042;47.956;9.222;2024-02-16T12:53:44;18.50;1.00
4054;DHT22;2042;47.956;9.222;2024-02-16T12:56:10;17.90;1.00
4054;DHT22;2042;47.956;9.222;2024-02-16T12:58:36;17.40;1.00
4054;DHT22;2042;47.956;9.222;2024-02-16T13:01:03;17.30;1.00
4054;DHT22;2042;47.956;9.222;2024-02-16T13:03:35;17.30;1.00
4054;DHT22;2042;47.956;9.222;2024-02-16T13:06:01;17.30;1.00
4054;DHT22;2042;47.956;9.222;2024-02-16T13:08:28;17.10;1.00
4054;DHT22;2042;47.956;9.222;2024-02-16T13:10:54;16.90;1.00
4054;DHT22;2042;47.956;9.222;2024-02-16T13:13:19;16.50;1.00
4054;DHT22;2042;47.956;9.222;2024-02-16T13:15:46;16.20;1.00
4054;DHT22;2042;47.956;9.222;2024-02-16T13:18:16;15.90;1.00
4054;DHT22;2042;47.956;9.222;2024-02-16T13:20:43;15.80;1.00
4054;DHT22;2042;47.956;9.222;2024-02-16T13:23:09;15.60;1.00
4054;DHT22;2042;47.956;9.222;2024-02-16T13:25:35;15.40;1.00
4054;DHT22;2042;47.956;9.222;2024-02-16T13:28:01;15.30;1.00
4054;DHT22;2042;47.956;9.222;2024-02-16T13:30:27;15.10;1.00
4054;DHT22;2042;47.956;9.222;2024-02-16T13:32:54;15.20;1.00
4054;DHT22;2042;47.956;9.222;2024-02-16T13:35:20;15.30;1.00
4054;DHT22;2042;47.956;9.222;2024-02-16T13:37:46;15.30;1.00
4054;DHT22;2042;47.956;9.222;2024-02-16T13:40:12;15.30;1.00
4054;DHT22;2042;47.956;9.222;2024-02-16T13:42:39;15.40;1.00
4054;DHT22;2042;47.956;9.222;2024-02-16T13:45:06;15.70;1.00
4054;DHT22;2042;47.956;9.222;2024-02-16T13:47:31;15.70;1.00
4054;DHT22;2042;47.956;9.222;2024-02-16T13:49:57;15.60;1.00
4054;DHT22;2042;47.956;9.222;2024-02-16T13:52:25;15.50;1.00
4054;DHT22;2042;47.956;9.222;2024-02-16T13:54:51;15.50;1.00
4054;DHT22;2042;47.956;9.222;2024-02-16T13:57:17;15.40;1.00
4054;DHT22;2042;47.956;9.222;2024-02-16T13:59:43;15.40;1.00
4054;DHT22;2042;47.956;9.222;2024-02-16T14:02:09;15.30;1.00
4054;DHT22;2042;47.956;9.222;2024-02-16T14:04:36;15.20;1.00
4054;DHT22;2042;47.956;9.222;2024-02-16T14:07:02;15.20;1.00
4054;DHT22;2042;47.956;9.222;2024-02-16T14:09:28;15.10;1.00
4054;DHT22;2042;47.956;9.222;2024-02-16T14:11:54;15.00;1.00
4054;DHT22;2042;47.956;9.222;2024-02-16T14:14:21;14.80;1.00
4054;DHT22;2042;47.956;9.222;2024-02-16T14:16:47;14.70;1.00
4054;DHT22;2042;47.956;9.222;2024-02-16T14:19:13;14.80;1.00
4054;DHT22;2042;47.956;9.222;2024-02-16T14:21:39;14.70;1.00
4054;DHT22;2042;47.956;9.222;2024-02-16T14:24:04;14.70;1.00
4054;DHT22;2042;47.956;9.222;2024-02-16T14:26:30;14.60;1.00
4054;DHT22;2042;47.956;9.222;2024-02-16T14:28:56;14.70;1.00
4054;DHT22;2042;47.956;9.222;2024-02-16T14:31:22;14.80;1.00
4054;DHT22;2042;47.956;9.222;2024-02-16T14:33:49;14.80;1.00
4054;DHT22;2042;47.956;9.222;2024-02-16T14:36:15;14.80;1.00
4054;DHT22;2042;47.956;9.222;2024-02-16T14:38:40;14.80;1.00
4054;DHT22;2042;47.956;9.222;2024-02-16T14:41:06;14.80;1.00
4054;DHT22;2042;47.956;9.222;2024-02-16T14:43:32;14.80;1.00
4054;DHT22;2042;47.956;9.222;2024-02-16T14:45:59;14.80;1.00
4054;DHT22;2042;47.956;9.222;2024-02-16T14:48:25;14.90;1.00
4054;DHT22;2042;47.956;9.222;2024-02-16T14:50:51;15.00;1.00
4054;DHT22;2042;47.956;9.222;2024-02-16T14:53:19;15.00;1.00
4054;DHT22;2042;47.956;9.222;2024-02-16T14:55:46;15.00;1.00
4054;DHT22;2042;47.956;9.222;2024-02-16T14:58:12;15.10;1.00
4054;DHT22;2042;47.956;9.222;2024-02-16T15:00:37;15.10;1.00
4054;DHT22;2042;47.956;9.222;2024-02-16T15:03:03;15.10;1.00
4054;DHT22;2042;47.956;9.222;2024-02-16T15:05:30;15.10;1.00
4054;DHT22;2042;47.956;9.222;2024-02-16T15:07:55;15.10;1.00
4054;DHT22;2042;47.956;9.222;2024-02-16T15:10:21;15.10;1.00
4054;DHT22;2042;47.956;9.222;2024-02-16T15:12:47;15.00;1.00
4054;DHT22;2042;47.956;9.222;2024-02-16T15:15:13;14.90;1.00
4054;DHT22;2042;47.956;9.222;2024-02-16T15:17:39;14.90;1.00
4054;DHT22;2042;47.956;9.222;2024-02-16T15:20:06;14.80;1.00
4054;DHT22;2042;47.956;9.222;2024-02-16T15:22:32;14.80;1.00
4054;DHT22;2042;47.956;9.222;2024-02-16T15:24:58;14.80;1.00
4054;DHT22;2042;47.956;9.222;2024-02-16T15:27:24;14.70;1.00
4054;DHT22;2042;47.956;9.222;2024-02-16T15:29:51;14.60;1.00
4054;DHT22;2042;47.956;9.222;2024-02-16T15:32:16;14.50;1.00
4054;DHT22;2042;47.956;9.222;2024-02-16T15:34:43;14.40;1.00
4054;DHT22;2042;47.956;9.222;2024-02-16T15:37:12;14.30;1.00
4054;DHT22;2042;47.956;9.222;2024-02-16T15:39:38;14.10;1.00
4054;DHT22;2042;47.956;9.222;2024-02-16T15:42:05;14.00;1.00
4054;DHT22;2042;47.956;9.222;2024-02-16T15:44:32;13.90;1.00
4054;DHT22;2042;47.956;9.222;2024-02-16T15:46:57;13.70;1.00
4054;DHT22;2042;47.956;9.222;2024-02-16T15:49:23;13.70;1.00
4054;DHT22;2042;47.956;9.222;2024-02-16T15:51:49;13.60;1.00
4054;DHT22;2042;47.956;9.222;2024-02-16T15:54:16;13.60;1.00
4054;DHT22;2042;47.956;9.222;2024-02-16T15:56:41;13.50;1.00
4054;DHT22;2042;47.956;9.222;2024-02-16T15:59:07;13.50;1.00
4054;DHT22;2042;47.956;9.222;2024-02-16T16:01:33;13.40;1.00
4054;DHT22;2042;47.956;9.222;2024-02-16T16:04:00;13.40;1.00
4054;DHT22;2042;47.956;9.222;2024-02-16T16:06:26;13.30;1.00
4054;DHT22;2042;47.956;9.222;2024-02-16T16:08:52;13.30;1.00
4054;DHT22;2042;47.956;9.222;2024-02-16T16:11:20;13.10;1.00
4054;DHT22;2042;47.956;9.222;2024-02-16T16:13:46;13.00;1.00
4054;DHT22;2042;47.956;9.222;2024-02-16T16:16:12;12.90;1.00
4054;DHT22;2042;47.956;9.222;2024-02-16T16:18:38;12.80;1.00